createdAt,value
2018-01-19T00:00:15.758Z,2.20
2018-01-19T00:02:43.210Z,2.30
2018-01-19T00:05:11.270Z,2.20
2018-01-19T00:07:38.801Z,2.20
2018-01-19T00:10:06.523Z,2.10
2018-01-19T00:12:33.961Z,2.10
2018-01-19T00:15:01.534Z,2.00
2018-01-19T00:17:28.996Z,2.00
2018-01-19T00:19:56.774Z,1.80
2018-01-19T00:22:24.531Z,1.70
2018-01-19T00:24:51.965Z,1.70
2018-01-19T00:27:19.406Z,1.60
2018-01-19T00:29:47.099Z,1.60
2018-01-19T00:32:14.571Z,1.50
2018-01-19T00:34:42.046Z,1.60
2018-01-19T00:37:09.671Z,1.60
2018-01-19T00:39:37.199Z,1.50
2018-01-19T00:42:04.644Z,1.40
2018-01-19T00:44:33.186Z,1.40
2018-01-19T00:47:00.806Z,1.40
2018-01-19T00:49:28.582Z,1.40
2018-01-19T00:51:56.180Z,1.50
2018-01-19T00:54:23.778Z,1.50
2018-01-19T00:56:51.276Z,1.50
2018-01-19T00:59:18.719Z,1.40
2018-01-19T01:01:46.194Z,1.40
2018-01-19T01:04:13.647Z,1.30
2018-01-19T01:06:41.405Z,1.30
2018-01-19T01:09:08.846Z,1.20
2018-01-19T01:11:36.297Z,1.10
2018-01-19T01:14:03.839Z,1.20
2018-01-19T01:16:31.651Z,1.10
2018-01-19T01:18:59.097Z,1.10
2018-01-19T01:21:26.754Z,1.10
2018-01-19T01:23:54.659Z,1.10
2018-01-19T01:26:22.275Z,1.00
2018-01-19T01:28:50.309Z,1.00
2018-01-19T01:31:18.625Z,0.90
2018-01-19T01:33:46.306Z,0.90
2018-01-19T01:36:13.927Z,0.90
2018-01-19T01:38:41.398Z,0.90
2018-01-19T01:41:08.986Z,1.00
2018-01-19T01:43:36.414Z,1.00
2018-01-19T01:46:04.389Z,1.00
2018-01-19T01:48:31.870Z,0.90
2018-01-19T01:50:59.756Z,0.70
2018-01-19T01:53:27.502Z,0.70
2018-01-19T01:55:55.450Z,0.60
2018-01-19T01:58:23.205Z,0.50
2018-01-19T02:00:50.790Z,0.60
2018-01-19T02:03:18.571Z,0.60
2018-01-19T02:05:46.018Z,0.60
2018-01-19T02:08:13.779Z,0.60
2018-01-19T02:10:41.454Z,0.60
2018-01-19T02:13:08.912Z,0.60
2018-01-19T02:15:36.636Z,0.60
2018-01-19T02:18:04.122Z,0.60
2018-01-19T02:20:32.319Z,0.60
2018-01-19T02:23:00.066Z,0.60
2018-01-19T02:25:27.703Z,0.50
2018-01-19T02:27:55.155Z,0.50
2018-01-19T02:30:22.639Z,0.50
2018-01-19T02:32:50.093Z,0.40
2018-01-19T02:35:17.954Z,0.40
2018-01-19T02:37:45.433Z,0.50
2018-01-19T02:40:14.721Z,0.50
2018-01-19T02:42:42.356Z,0.50
2018-01-19T02:45:09.953Z,0.50
2018-01-19T02:47:37.403Z,0.60
2018-01-19T02:50:05.153Z,0.50
2018-01-19T02:52:33.225Z,0.50
2018-01-19T02:55:00.895Z,0.50
2018-01-19T02:57:28.395Z,0.50
2018-01-19T02:59:56.038Z,0.40
2018-01-19T03:02:23.676Z,0.40
2018-01-19T03:04:51.132Z,0.40
2018-01-19T03:07:19.065Z,0.30
2018-01-19T03:09:46.994Z,0.30
2018-01-19T03:12:14.423Z,0.20
2018-01-19T03:14:42.193Z,0.20
2018-01-19T03:17:09.658Z,0.10
2018-01-19T03:19:38.600Z,0.10
2018-01-19T03:22:06.702Z,0.00
2018-01-19T03:24:34.466Z,0.10
2018-01-19T03:27:02.114Z,0.10
2018-01-19T03:29:30.623Z,0.10
2018-01-19T03:31:58.726Z,0.10
2018-01-19T03:34:26.161Z,0.10
2018-01-19T03:36:55.405Z,0.10
2018-01-19T03:39:23.074Z,0.10
2018-01-19T03:41:50.678Z,0.10
2018-01-19T03:44:18.295Z,0.10
2018-01-19T03:46:45.753Z,0.00
2018-01-19T03:49:13.201Z,0.00
2018-01-19T03:51:40.741Z,0.00
2018-01-19T03:54:08.869Z,0.00
2018-01-19T03:56:36.307Z,-0.10
2018-01-19T03:59:04.238Z,-0.10
2018-01-19T04:01:32.741Z,-0.10
2018-01-19T04:04:00.420Z,-0.10
2018-01-19T04:06:28.629Z,-0.10
2018-01-19T04:08:56.254Z,-0.10
2018-01-19T04:11:23.735Z,-0.10
2018-01-19T04:13:51.994Z,-0.10
2018-01-19T04:16:19.867Z,-0.10
2018-01-19T04:18:47.742Z,-0.10
2018-01-19T04:21:15.527Z,-0.10
2018-01-19T04:23:43.194Z,0.00
2018-01-19T04:26:11.029Z,0.10
2018-01-19T04:28:38.691Z,0.10
2018-01-19T04:31:06.156Z,0.20
2018-01-19T04:33:33.591Z,0.20
2018-01-19T04:36:01.177Z,0.30
2018-01-19T04:38:28.936Z,0.20
2018-01-19T04:40:56.448Z,0.30
2018-01-19T04:43:24.673Z,0.20
2018-01-19T04:45:52.125Z,0.20
2018-01-19T04:48:19.587Z,0.30
2018-01-19T04:50:47.049Z,0.30
2018-01-19T04:53:14.517Z,0.30
2018-01-19T04:55:41.970Z,0.30
2018-01-19T04:58:09.416Z,0.30
2018-01-19T05:00:37.274Z,0.40
2018-01-19T05:03:05.209Z,0.60
2018-01-19T05:05:32.702Z,0.60
2018-01-19T05:08:00.266Z,0.70
2018-01-19T05:10:27.700Z,0.70
2018-01-19T05:12:55.310Z,0.90
2018-01-19T05:15:22.836Z,1.00
2018-01-19T05:17:50.276Z,1.10
2018-01-19T05:20:18.090Z,1.10
2018-01-19T05:22:45.855Z,1.10
2018-01-19T05:25:13.292Z,1.20
2018-01-19T05:27:41.014Z,1.40
2018-01-19T05:30:08.606Z,1.30
2018-01-19T05:32:36.065Z,1.20
2018-01-19T05:35:03.727Z,1.30
2018-01-19T05:37:31.181Z,1.40
2018-01-19T05:39:58.638Z,1.50
2018-01-19T05:42:26.098Z,1.50
2018-01-19T05:44:53.973Z,1.60
2018-01-19T05:47:22.219Z,1.50
2018-01-19T05:49:49.753Z,1.60
2018-01-19T05:52:17.200Z,1.70
2018-01-19T05:54:44.882Z,1.70
2018-01-19T05:57:12.490Z,1.80
2018-01-19T05:59:40.190Z,1.80
2018-01-19T06:02:07.801Z,1.80
2018-01-19T06:04:35.770Z,1.80
2018-01-19T06:07:03.536Z,1.80
2018-01-19T06:09:31.016Z,1.80
2018-01-19T06:11:58.614Z,1.80
2018-01-19T06:14:26.411Z,1.70
2018-01-19T06:16:53.979Z,1.70
2018-01-19T06:19:23.389Z,1.80
2018-01-19T06:21:51.319Z,1.90
2018-01-19T06:24:19.079Z,2.00
2018-01-19T06:26:46.788Z,2.00
2018-01-19T06:29:14.643Z,2.00
2018-01-19T06:31:42.488Z,2.10
2018-01-19T06:34:10.178Z,2.00
2018-01-19T06:36:38.074Z,1.90
2018-01-19T06:39:05.525Z,1.90
2018-01-19T06:41:33.009Z,1.90
2018-01-19T06:44:00.518Z,1.80
2018-01-19T06:46:28.069Z,2.10
2018-01-19T06:48:56.142Z,2.10
2018-01-19T06:51:23.566Z,2.10
2018-01-19T06:53:51.666Z,2.00
2018-01-19T06:56:19.162Z,2.00
2018-01-19T06:58:46.898Z,2.00
2018-01-19T07:01:14.330Z,2.00
2018-01-19T07:03:42.109Z,2.00
2018-01-19T07:06:09.877Z,2.00
2018-01-19T07:08:37.314Z,2.00
2018-01-19T07:11:04.814Z,1.90
2018-01-19T07:13:32.260Z,2.00
2018-01-19T07:15:59.873Z,2.00
2018-01-19T07:18:27.650Z,2.10
2018-01-19T07:20:55.103Z,2.10
2018-01-19T07:23:22.877Z,2.10
2018-01-19T07:25:50.738Z,2.00
2018-01-19T07:28:18.204Z,2.00
2018-01-19T07:30:45.910Z,2.00
2018-01-19T07:33:13.397Z,2.10
2018-01-19T07:35:41.086Z,2.10
2018-01-19T07:38:08.540Z,2.10
2018-01-19T07:40:35.974Z,2.10
2018-01-19T07:43:03.417Z,2.20
2018-01-19T07:45:31.617Z,2.30
2018-01-19T07:47:59.297Z,2.30
2018-01-19T07:50:26.718Z,2.20
2018-01-19T07:52:55.422Z,2.30
2018-01-19T07:55:23.157Z,2.20
2018-01-19T07:57:51.592Z,2.10
2018-01-19T08:00:19.050Z,2.10
2018-01-19T08:02:46.472Z,2.20
2018-01-19T08:05:13.948Z,2.20
2018-01-19T08:07:41.457Z,2.30
2018-01-19T08:10:09.826Z,2.30
2018-01-19T08:12:37.554Z,2.30
2018-01-19T08:15:05.047Z,2.20
2018-01-19T08:17:32.766Z,2.20
2018-01-19T08:20:00.220Z,2.20
2018-01-19T08:22:27.702Z,2.20
2018-01-19T08:24:55.569Z,2.10
2018-01-19T08:27:23.525Z,2.20
2018-01-19T08:29:50.965Z,2.10
2018-01-19T08:32:18.402Z,2.10
2018-01-19T08:34:46.721Z,2.10
2018-01-19T08:37:14.160Z,2.10
2018-01-19T08:39:41.774Z,2.10
2018-01-19T08:42:09.366Z,2.20
2018-01-19T08:44:37.122Z,2.10
2018-01-19T08:47:04.550Z,2.20
2018-01-19T08:49:32.598Z,2.20
2018-01-19T08:52:00.357Z,2.20
2018-01-19T08:54:27.818Z,2.20
2018-01-19T08:56:55.277Z,2.20
2018-01-19T08:59:23.225Z,2.20
2018-01-19T09:01:50.680Z,2.10
2018-01-19T09:04:18.253Z,2.10
2018-01-19T09:06:46.023Z,2.00
2018-01-19T09:09:13.738Z,2.10
2018-01-19T09:11:41.393Z,2.10
2018-01-19T09:14:09.830Z,2.20
2018-01-19T09:16:37.289Z,2.20
2018-01-19T09:19:04.733Z,2.10
2018-01-19T09:21:32.558Z,2.10
2018-01-19T09:24:00.357Z,2.20
2018-01-19T09:26:27.786Z,2.30
2018-01-19T09:28:55.609Z,2.30
2018-01-19T09:31:23.237Z,2.30
2018-01-19T09:33:50.770Z,2.30
2018-01-19T09:36:18.573Z,2.30
2018-01-19T09:38:46.050Z,2.30
2018-01-19T09:41:13.805Z,2.30
2018-01-19T09:43:41.470Z,2.40
2018-01-19T09:46:08.921Z,2.50
2018-01-19T09:48:36.477Z,2.40
2018-01-19T09:51:04.142Z,2.40
2018-01-19T09:53:32.011Z,2.40
2018-01-19T09:55:59.451Z,2.40
2018-01-19T09:58:27.150Z,2.50
2018-01-19T10:00:54.697Z,2.50
2018-01-19T10:03:22.464Z,2.50
2018-01-19T10:05:50.514Z,2.50
2018-01-19T10:08:17.961Z,2.50
2018-01-19T10:10:45.406Z,2.60
2018-01-19T10:13:13.205Z,2.60
2018-01-19T10:15:40.870Z,2.60
2018-01-19T10:18:08.315Z,2.60
2018-01-19T10:20:35.779Z,2.60
2018-01-19T10:23:03.197Z,2.60
2018-01-19T10:25:31.890Z,2.60
2018-01-19T10:27:59.317Z,2.60
2018-01-19T10:30:26.934Z,2.60
2018-01-19T10:32:54.373Z,2.70
2018-01-19T10:35:22.125Z,2.80
2018-01-19T10:37:49.629Z,2.70
2018-01-19T10:40:17.069Z,2.70
2018-01-19T10:42:44.510Z,2.70
2018-01-19T10:45:12.303Z,2.80
2018-01-19T10:47:39.919Z,2.80
2018-01-19T10:50:07.354Z,2.80
2018-01-19T10:52:34.818Z,2.90
2018-01-19T10:55:03.030Z,2.90
2018-01-19T10:57:30.821Z,2.90
2018-01-19T10:59:58.561Z,3.00
2018-01-19T11:02:26.008Z,2.90
2018-01-19T11:04:53.715Z,3.00
2018-01-19T11:07:21.554Z,2.90
2018-01-19T11:09:49.222Z,3.00
2018-01-19T11:12:16.684Z,3.00
2018-01-19T11:14:44.447Z,3.00
2018-01-19T11:17:12.169Z,3.10
2018-01-19T11:19:39.640Z,3.00
2018-01-19T11:22:07.558Z,3.00
2018-01-19T11:24:35.196Z,3.10
2018-01-19T11:27:02.922Z,3.10
2018-01-19T11:29:30.387Z,2.90
2018-01-19T11:31:58.003Z,2.90
2018-01-19T11:34:25.711Z,3.00
2018-01-19T11:36:53.379Z,3.00
2018-01-19T11:39:21.565Z,2.90
2018-01-19T11:41:49.629Z,3.00
2018-01-19T11:44:17.323Z,3.00
2018-01-19T11:46:44.818Z,3.00
2018-01-19T11:49:12.533Z,3.10
2018-01-19T11:51:40.017Z,3.20
2018-01-19T11:54:08.146Z,3.20
2018-01-19T11:56:35.915Z,3.30
2018-01-19T11:59:03.682Z,3.20
2018-01-19T12:01:31.360Z,3.10
2018-01-19T12:03:58.812Z,3.20
2018-01-19T12:06:26.684Z,3.20
2018-01-19T12:08:54.615Z,3.30
2018-01-19T12:11:22.134Z,3.40
2018-01-19T12:13:49.600Z,3.50
2018-01-19T12:16:17.874Z,3.50
2018-01-19T12:18:46.266Z,3.70
2018-01-19T12:21:13.866Z,3.70
2018-01-19T12:23:41.610Z,3.80
2018-01-19T12:26:09.306Z,3.90
2018-01-19T12:28:37.057Z,3.90
2018-01-19T12:31:04.481Z,3.90
2018-01-19T12:33:32.070Z,3.80
2018-01-19T12:35:59.502Z,3.80
2018-01-19T12:38:27.298Z,3.90
2018-01-19T12:40:54.959Z,3.80
2018-01-19T12:43:22.414Z,3.90
2018-01-19T12:45:50.161Z,3.90
2018-01-19T12:48:17.636Z,3.90
2018-01-19T12:50:45.072Z,4.00
2018-01-19T12:53:12.530Z,4.10
2018-01-19T12:55:40.366Z,4.10
2018-01-19T12:58:08.076Z,4.30
2018-01-19T13:00:35.502Z,4.40
2018-01-19T13:03:03.716Z,4.30
2018-01-19T13:05:31.366Z,4.30
2018-01-19T13:07:58.832Z,4.30
2018-01-19T13:10:26.286Z,4.30
2018-01-19T13:12:53.842Z,4.20
2018-01-19T13:15:21.658Z,4.20
2018-01-19T13:17:49.173Z,4.20
2018-01-19T13:20:16.740Z,4.30
2018-01-19T13:22:45.067Z,4.20
2018-01-19T13:25:13.250Z,4.30
2018-01-19T13:27:40.846Z,4.30
2018-01-19T13:30:08.325Z,4.30
2018-01-19T13:32:35.957Z,4.20
2018-01-19T13:35:03.630Z,4.30
2018-01-19T13:37:31.369Z,4.30
2018-01-19T13:39:58.950Z,4.40
2018-01-19T13:42:26.701Z,4.30
2018-01-19T13:44:54.322Z,4.30
2018-01-19T13:47:22.514Z,4.40
2018-01-19T13:49:50.138Z,4.40
2018-01-19T13:52:17.769Z,4.30
2018-01-19T13:54:45.343Z,4.30
2018-01-19T13:57:12.894Z,4.10
2018-01-19T13:59:40.326Z,4.00
2018-01-19T14:02:07.807Z,3.90
2018-01-19T14:04:35.275Z,3.90
2018-01-19T14:07:02.866Z,3.80
2018-01-19T14:09:30.460Z,3.70
2018-01-19T14:11:58.037Z,3.70
2018-01-19T14:14:25.795Z,3.70
2018-01-19T14:16:53.553Z,3.60
2018-01-19T14:19:21.490Z,3.60
2018-01-19T14:21:48.967Z,3.60
2018-01-19T14:24:16.552Z,3.60
2018-01-19T14:26:43.986Z,3.70
2018-01-19T14:29:11.443Z,3.70
2018-01-19T14:31:39.226Z,3.70
2018-01-19T14:34:07.010Z,3.60
2018-01-19T14:36:34.935Z,3.40
2018-01-19T14:39:02.377Z,3.40
2018-01-19T14:41:29.864Z,3.30
2018-01-19T14:43:57.741Z,3.40
2018-01-19T14:46:25.197Z,3.40
2018-01-19T14:48:52.635Z,3.50
2018-01-19T14:51:20.329Z,3.50
2018-01-19T14:53:47.869Z,3.60
2018-01-19T14:56:15.538Z,3.60
2018-01-19T14:58:43.003Z,3.50
2018-01-19T15:01:10.854Z,3.40
2018-01-19T15:03:38.286Z,3.50
2018-01-19T15:06:06.066Z,3.30
2018-01-19T15:08:33.541Z,3.20
2018-01-19T15:11:01.482Z,3.30
2018-01-19T15:13:28.959Z,3.20
2018-01-19T15:15:56.414Z,3.20
2018-01-19T15:18:24.147Z,3.10
2018-01-19T15:20:51.580Z,3.00
2018-01-19T15:23:19.854Z,2.80
2018-01-19T15:25:47.607Z,2.80
2018-01-19T15:28:15.262Z,2.70
2018-01-19T15:30:42.868Z,2.70
2018-01-19T15:33:10.302Z,2.70
2018-01-19T15:35:37.742Z,2.80
2018-01-19T15:38:05.165Z,2.80
2018-01-19T15:40:32.677Z,2.80
2018-01-19T15:43:00.709Z,2.80
2018-01-19T15:45:28.325Z,2.90
2018-01-19T15:47:56.534Z,2.70
2018-01-19T15:50:24.301Z,2.70
2018-01-19T15:52:51.749Z,2.70
2018-01-19T15:55:19.406Z,2.70
2018-01-19T15:57:47.001Z,2.70
2018-01-19T16:00:14.433Z,2.60
2018-01-19T16:02:42.202Z,2.60
2018-01-19T16:05:09.636Z,2.50
2018-01-19T16:07:37.305Z,2.50
2018-01-19T16:10:04.767Z,2.50
2018-01-19T16:12:32.204Z,2.50
2018-01-19T16:15:00.403Z,2.50
2018-01-19T16:17:27.848Z,2.50
2018-01-19T16:19:55.284Z,2.50
2018-01-19T16:22:22.732Z,2.50
2018-01-19T16:24:50.178Z,2.50
2018-01-19T16:27:17.644Z,2.50
2018-01-19T16:29:45.086Z,2.60
2018-01-19T16:32:12.586Z,2.70
2018-01-19T16:34:40.053Z,2.80
2018-01-19T16:37:07.834Z,2.80
2018-01-19T16:39:35.274Z,2.80
2018-01-19T16:42:03.061Z,2.90
2018-01-19T16:44:30.493Z,2.90
2018-01-19T16:46:58.470Z,2.90
2018-01-19T16:49:25.903Z,2.90
2018-01-19T16:51:53.505Z,2.90
2018-01-19T16:54:22.183Z,3.00
2018-01-19T16:56:49.953Z,3.00
2018-01-19T16:59:18.013Z,3.00
2018-01-19T17:01:45.693Z,2.90
2018-01-19T17:04:13.405Z,3.00
2018-01-19T17:06:41.910Z,3.00
2018-01-19T17:09:09.558Z,3.00
2018-01-19T17:11:37.086Z,2.70
2018-01-19T17:14:05.174Z,2.50
2018-01-19T17:16:32.862Z,2.20
2018-01-19T17:19:00.847Z,2.00
2018-01-19T17:21:28.818Z,2.00
2018-01-19T17:23:56.293Z,2.10
2018-01-19T17:26:24.038Z,2.00
2018-01-19T17:28:51.694Z,2.00
2018-01-19T17:31:19.174Z,2.00
2018-01-19T17:33:46.612Z,2.00
2018-01-19T17:36:14.067Z,2.00
2018-01-19T17:38:41.574Z,1.90
2018-01-19T17:41:09.266Z,1.90
2018-01-19T17:43:36.710Z,1.80
2018-01-19T17:46:04.309Z,1.80
2018-01-19T17:48:31.823Z,1.80
2018-01-19T17:50:59.398Z,1.80
2018-01-19T17:53:27.922Z,1.90
2018-01-19T17:55:55.570Z,1.80
2018-01-19T17:58:23.334Z,1.80
2018-01-19T18:00:50.821Z,1.80
2018-01-19T18:03:18.538Z,1.70
2018-01-19T18:05:46.137Z,1.70
2018-01-19T18:08:13.580Z,1.70
2018-01-19T18:10:41.205Z,1.70
2018-01-19T18:13:09.718Z,1.70
2018-01-19T18:15:37.155Z,1.70
2018-01-19T18:18:04.825Z,1.70
2018-01-19T18:20:32.593Z,1.70
2018-01-19T18:23:00.030Z,1.70
2018-01-19T18:25:27.689Z,1.70
2018-01-19T18:27:55.290Z,1.80
2018-01-19T18:30:22.769Z,1.80
2018-01-19T18:32:50.468Z,1.70
2018-01-19T18:35:18.657Z,1.80
2018-01-19T18:37:46.438Z,1.70
2018-01-19T18:40:14.084Z,1.70
2018-01-19T18:42:41.982Z,1.70
2018-01-19T18:45:09.597Z,1.70
2018-01-19T18:47:38.021Z,1.70
2018-01-19T18:50:05.873Z,1.70
2018-01-19T18:52:33.546Z,1.50
2018-01-19T18:55:00.993Z,1.50
2018-01-19T18:57:28.474Z,1.50
2018-01-19T18:59:55.937Z,1.50
2018-01-19T19:02:23.658Z,1.50
2018-01-19T19:04:51.261Z,1.50
2018-01-19T19:07:18.882Z,1.50
2018-01-19T19:09:46.386Z,1.60
2018-01-19T19:12:14.213Z,1.50
2018-01-19T19:14:41.661Z,1.60
2018-01-19T19:17:09.337Z,1.70
2018-01-19T19:19:36.790Z,2.00
2018-01-19T19:22:04.274Z,2.10
2018-01-19T19:24:31.705Z,2.10
2018-01-19T19:26:59.186Z,2.00
2018-01-19T19:29:26.895Z,1.90
2018-01-19T19:31:54.394Z,1.80
2018-01-19T19:34:21.834Z,1.80
2018-01-19T19:36:49.417Z,1.80
2018-01-19T19:39:17.248Z,1.80
2018-01-19T19:41:45.242Z,1.70
2018-01-19T19:44:13.286Z,1.80
2018-01-19T19:46:40.938Z,1.70
2018-01-19T19:49:08.438Z,1.70
2018-01-19T19:51:36.313Z,1.60
2018-01-19T19:54:05.482Z,1.60
2018-01-19T19:56:32.990Z,1.60
2018-01-19T19:59:00.444Z,1.60
2018-01-19T20:01:27.872Z,1.50
2018-01-19T20:03:55.614Z,1.60
2018-01-19T20:06:23.205Z,1.60
2018-01-19T20:08:52.275Z,1.60
2018-01-19T20:11:19.793Z,1.60
2018-01-19T20:13:47.997Z,1.70
2018-01-19T20:16:15.781Z,1.60
2018-01-19T20:18:43.869Z,1.60
2018-01-19T20:21:11.298Z,1.60
2018-01-19T20:23:38.777Z,1.70
2018-01-19T20:26:06.830Z,1.60
2018-01-19T20:28:34.510Z,1.60
2018-01-19T20:31:01.951Z,1.70
2018-01-19T20:33:29.391Z,1.60
2018-01-19T20:35:56.973Z,1.60
2018-01-19T20:38:24.412Z,1.60
2018-01-19T20:40:52.200Z,1.50
2018-01-19T20:43:19.638Z,1.60
2018-01-19T20:45:47.081Z,1.50
2018-01-19T20:48:14.739Z,1.60
2018-01-19T20:50:42.324Z,1.60
2018-01-19T20:53:09.766Z,1.60
2018-01-19T20:55:37.446Z,1.60
2018-01-19T20:58:04.917Z,1.60
2018-01-19T21:00:32.651Z,1.60
2018-01-19T21:03:00.127Z,1.50
2018-01-19T21:05:27.867Z,1.50
2018-01-19T21:07:55.364Z,1.50
2018-01-19T21:10:22.841Z,1.40
2018-01-19T21:12:50.330Z,1.40
2018-01-19T21:15:18.014Z,1.50
2018-01-19T21:17:45.466Z,1.40
2018-01-19T21:20:13.957Z,1.40
2018-01-19T21:22:41.394Z,1.40
2018-01-19T21:25:10.033Z,1.40
2018-01-19T21:27:37.945Z,1.30
2018-01-19T21:30:05.496Z,1.30
2018-01-19T21:32:32.939Z,1.20
2018-01-19T21:35:01.600Z,1.10
2018-01-19T21:37:29.039Z,1.10
2018-01-19T21:39:56.748Z,1.10
2018-01-19T21:42:25.087Z,1.10
2018-01-19T21:44:53.029Z,1.10
2018-01-19T21:47:20.530Z,1.00
2018-01-19T21:49:47.966Z,1.00
2018-01-19T21:52:15.725Z,1.00
2018-01-19T21:54:43.272Z,1.00
2018-01-19T21:57:11.049Z,1.00
2018-01-19T21:59:38.494Z,1.00
2018-01-19T22:02:06.139Z,1.00
2018-01-19T22:04:33.634Z,0.90
2018-01-19T22:07:01.174Z,0.90
2018-01-19T22:09:28.872Z,0.90
2018-01-19T22:11:56.314Z,1.00
2018-01-19T22:14:24.488Z,1.00
2018-01-19T22:16:53.745Z,1.00
2018-01-19T22:19:21.405Z,1.00
2018-01-19T22:21:49.165Z,1.00
2018-01-19T22:24:16.629Z,1.00
2018-01-19T22:26:44.218Z,0.90
2018-01-19T22:29:11.674Z,1.00
2018-01-19T22:31:39.160Z,0.90
2018-01-19T22:34:08.298Z,1.00
2018-01-19T22:36:36.009Z,1.00
2018-01-19T22:39:03.454Z,1.10
2018-01-19T22:41:31.054Z,1.10
2018-01-19T22:43:58.618Z,1.10
2018-01-19T22:46:26.237Z,1.20
2018-01-19T22:48:53.670Z,1.20
2018-01-19T22:51:21.097Z,1.10
2018-01-19T22:53:48.886Z,1.10
2018-01-19T22:56:16.457Z,1.10
2018-01-19T22:58:44.097Z,1.10
2018-01-19T23:01:11.602Z,1.00
2018-01-19T23:03:39.324Z,1.00
2018-01-19T23:06:06.757Z,1.10
2018-01-19T23:08:34.972Z,1.10
2018-01-19T23:11:02.428Z,1.00
2018-01-19T23:13:30.375Z,1.10
2018-01-19T23:15:57.965Z,1.10
2018-01-19T23:18:25.726Z,1.10
2018-01-19T23:20:53.809Z,1.10
2018-01-19T23:23:21.466Z,1.20
2018-01-19T23:25:49.038Z,1.20
2018-01-19T23:28:16.487Z,1.20
2018-01-19T23:30:43.917Z,1.20
2018-01-19T23:33:11.374Z,1.20
2018-01-19T23:35:39.073Z,1.30
2018-01-19T23:38:06.922Z,1.40
2018-01-19T23:40:34.595Z,1.40
2018-01-19T23:43:02.334Z,1.40
2018-01-19T23:45:30.338Z,1.30
2018-01-19T23:47:57.978Z,1.30
2018-01-19T23:50:25.431Z,1.20
2018-01-19T23:52:53.080Z,1.30
2018-01-19T23:55:21.288Z,1.20
2018-01-19T23:57:48.749Z,1.20
